リール の空港の天気 - METARとTAF

リール空港 ( LFQQ / LIL ) - フランス リール
飛行場実況気象(Metar)
観測時間07/19 06:00 CEST (07/19 04:00 UTC)
風向・風速南西 2m/s
視程10km以上
天気現象
全天の8割程度の雲 雲底高度 1490m
全天を覆う雲 雲底高度 3350m
気温16℃
湿度82%
気圧1013hPa
METARLFQQ 190400Z AUTO 22004KT 9999 BKN049 OVC110 16/13 Q1013 TEMPO 4000 BR
過去の天気等 Google飛行場航空写真 Wunderground天気予報

過去48時間のMETAR

飛行場予報(TAF)
発表時間: 7/19 01:00 CEST (7/18 23:00 UTC)
予報対象時間: 19日2時 CEST ~ 20日8時 CEST
風向・風速西南西 3m/s
視程10km以上
なし
19日6時 CEST ~ 19日8時 CEST に 確率 30% で一時的に
視程4000m
天気現象もや
全天の4割程度の雲 雲底高度 240m
TAF LFQQ 182300Z 1900/2006 24006KT CAVOK
PROB30 TEMPO 1904/1906 4000 BR SCT008